createdAt,value
2023-03-04T00:00:47.485Z,35.90
2023-03-04T00:01:47.560Z,35.00
2023-03-04T00:02:47.495Z,33.00
2023-03-04T00:03:47.498Z,34.20
2023-03-04T00:04:47.422Z,32.50
2023-03-04T00:05:47.463Z,33.30
2023-03-04T00:06:47.437Z,33.20
2023-03-04T00:07:47.401Z,36.30
2023-03-04T00:08:47.422Z,32.10
2023-03-04T00:09:47.395Z,35.00
2023-03-04T00:10:47.357Z,34.20
2023-03-04T00:11:47.368Z,37.80
2023-03-04T00:12:47.323Z,33.40
2023-03-04T00:13:47.353Z,33.20
2023-03-04T00:14:47.289Z,29.50
2023-03-04T00:15:47.307Z,32.00
2023-03-04T00:16:47.323Z,32.10
2023-03-04T00:17:47.297Z,35.80
2023-03-04T00:18:47.269Z,33.20
2023-03-04T00:19:47.278Z,35.10
2023-03-04T00:20:47.206Z,31.80
2023-03-04T00:21:47.219Z,33.60
2023-03-04T00:22:48.063Z,33.60
2023-03-04T00:23:47.216Z,35.70
2023-03-04T00:24:47.179Z,35.90
2023-03-04T00:25:47.184Z,34.80
2023-03-04T00:26:47.141Z,33.70
2023-03-04T00:27:47.154Z,33.10
2023-03-04T00:28:47.164Z,34.70
2023-03-04T00:29:47.131Z,33.10
2023-03-04T00:30:47.128Z,33.70
2023-03-04T00:31:47.176Z,36.80
2023-03-04T00:32:47.145Z,29.90
2023-03-04T00:33:47.046Z,32.10
2023-03-04T00:34:47.063Z,33.00
2023-03-04T00:35:47.030Z,33.90
2023-03-04T00:36:47.031Z,32.00
2023-03-04T00:37:47.012Z,30.60
2023-03-04T00:38:47.033Z,34.00
2023-03-04T00:39:46.958Z,35.30
2023-03-04T00:40:47.053Z,35.50
2023-03-04T00:41:46.953Z,31.70
2023-03-04T00:42:47.011Z,35.90
2023-03-04T00:43:46.914Z,37.10
2023-03-04T00:44:46.953Z,34.60
2023-03-04T00:45:46.892Z,34.80
2023-03-04T00:46:46.947Z,32.30
2023-03-04T00:47:46.865Z,36.20
2023-03-04T00:48:46.902Z,32.30
2023-03-04T00:49:46.852Z,33.00
2023-03-04T00:50:46.844Z,34.80
2023-03-04T00:51:46.830Z,34.60
2023-03-04T00:52:46.811Z,33.20
2023-03-04T00:53:46.811Z,34.30
2023-03-04T00:54:46.797Z,39.00
2023-03-04T00:55:46.768Z,36.60
2023-03-04T00:56:46.784Z,36.40
2023-03-04T00:57:46.717Z,32.50
2023-03-04T00:58:46.741Z,36.30
2023-03-04T00:59:46.730Z,37.30
2023-03-04T01:00:46.714Z,33.60
2023-03-04T01:01:46.668Z,36.40
2023-03-04T01:02:46.775Z,37.90
2023-03-04T01:03:46.643Z,36.60
2023-03-04T01:04:46.822Z,39.00
2023-03-04T01:05:46.637Z,35.90
2023-03-04T01:06:46.623Z,40.80
2023-03-04T01:07:46.610Z,40.00
2023-03-04T01:08:46.617Z,40.50
2023-03-04T01:09:46.584Z,40.50
2023-03-04T01:10:46.595Z,37.30
2023-03-04T01:11:46.536Z,43.50
2023-03-04T01:12:46.561Z,36.40
2023-03-04T01:13:46.529Z,36.20
2023-03-04T01:14:46.600Z,35.30
2023-03-04T01:15:46.508Z,35.40
2023-03-04T01:16:46.608Z,36.10
2023-03-04T01:17:46.542Z,35.40
2023-03-04T01:18:46.482Z,39.20
2023-03-04T01:19:46.447Z,34.40
2023-03-04T01:20:46.444Z,38.20
2023-03-04T01:21:46.410Z,36.80
2023-03-04T01:22:46.432Z,35.90
2023-03-04T01:23:46.381Z,37.00
2023-03-04T01:24:46.434Z,36.80
2023-03-04T01:25:46.386Z,40.00
2023-03-04T01:26:46.356Z,35.40
2023-03-04T01:27:46.331Z,38.10
2023-03-04T01:28:46.346Z,37.90
2023-03-04T01:29:46.329Z,41.60
2023-03-04T01:30:46.343Z,38.60
2023-03-04T01:31:46.268Z,31.00
2023-03-04T01:32:46.299Z,35.70
2023-03-04T01:33:46.242Z,34.30
2023-03-04T01:34:46.305Z,36.50
2023-03-04T01:35:46.322Z,38.70
2023-03-04T01:36:46.288Z,36.00
2023-03-04T01:37:46.220Z,37.30
2023-03-04T01:38:46.235Z,36.60
2023-03-04T01:39:46.176Z,42.00
2023-03-04T01:40:46.184Z,39.00
2023-03-04T01:41:46.148Z,37.50
2023-03-04T01:42:46.175Z,41.80
2023-03-04T01:43:46.117Z,42.30
2023-03-04T01:44:46.139Z,40.70
2023-03-04T01:45:46.138Z,42.90
2023-03-04T01:46:46.125Z,39.70
2023-03-04T01:47:46.070Z,45.30
2023-03-04T01:48:46.135Z,42.30
2023-03-04T01:49:46.211Z,43.50
2023-03-04T01:50:46.078Z,41.40
2023-03-04T01:51:46.017Z,41.10
2023-03-04T01:52:46.043Z,42.10
2023-03-04T01:53:46.020Z,43.10
2023-03-04T01:54:46.169Z,42.90
2023-03-04T01:55:45.981Z,44.30
2023-03-04T01:56:45.995Z,41.10
2023-03-04T01:57:45.952Z,42.90
2023-03-04T01:58:45.997Z,42.60
2023-03-04T01:59:46.035Z,45.10
2023-03-04T02:00:45.921Z,45.80
2023-03-04T02:01:45.930Z,45.10
2023-03-04T02:02:45.911Z,43.90
2023-03-04T02:03:45.871Z,44.70
2023-03-04T02:04:45.876Z,44.50
2023-03-04T02:05:45.958Z,46.20
2023-03-04T02:06:45.862Z,44.70
2023-03-04T02:07:45.807Z,46.80
2023-03-04T02:08:45.822Z,47.10
2023-03-04T02:09:45.775Z,47.40
2023-03-04T02:10:45.838Z,47.20
2023-03-04T02:11:45.781Z,45.20
2023-03-04T02:12:45.776Z,43.90
2023-03-04T02:13:45.736Z,44.70
2023-03-04T02:14:45.816Z,45.10
2023-03-04T02:15:45.742Z,46.10
2023-03-04T02:16:45.716Z,47.90
2023-03-04T02:17:45.689Z,44.80
2023-03-04T02:18:45.682Z,49.30
2023-03-04T02:19:45.668Z,46.30
2023-03-04T02:20:45.661Z,46.40
2023-03-04T02:21:45.630Z,47.00
2023-03-04T02:22:45.626Z,49.30
2023-03-04T02:23:45.615Z,46.40
2023-03-04T02:24:45.627Z,48.30
2023-03-04T02:25:45.563Z,51.10
2023-03-04T02:26:45.590Z,45.20
2023-03-04T02:27:45.582Z,46.80
2023-03-04T02:28:45.592Z,47.70
2023-03-04T02:29:45.527Z,47.50
2023-03-04T02:30:45.539Z,48.90
2023-03-04T02:31:45.497Z,47.50
2023-03-04T02:32:45.523Z,53.50
2023-03-04T02:33:45.472Z,50.80
2023-03-04T02:34:46.315Z,108.80
2023-03-04T02:35:45.457Z,123.60
2023-03-04T02:36:45.459Z,102.70
2023-03-04T02:37:45.421Z,80.20
2023-03-04T02:38:45.446Z,51.80
2023-03-04T02:39:45.424Z,51.30
2023-03-04T02:40:45.410Z,54.00
2023-03-04T02:41:45.415Z,96.70
2023-03-04T02:42:45.382Z,106.90
2023-03-04T02:43:45.331Z,55.80
2023-03-04T02:44:45.397Z,63.60
2023-03-04T02:45:45.326Z,59.40
2023-03-04T02:46:45.329Z,97.20
2023-03-04T02:47:45.279Z,100.60
2023-03-04T02:48:45.321Z,75.60
2023-03-04T02:49:45.268Z,85.50
2023-03-04T02:50:45.304Z,68.80
2023-03-04T02:51:45.230Z,67.00
2023-03-04T02:52:45.248Z,78.20
2023-03-04T02:53:45.248Z,80.80
2023-03-04T02:54:45.248Z,79.30
2023-03-04T02:55:45.216Z,68.70
2023-03-04T02:56:45.192Z,64.00
2023-03-04T02:57:45.150Z,63.20
2023-03-04T02:58:45.192Z,60.80
2023-03-04T02:59:45.151Z,59.40
2023-03-04T03:00:45.151Z,58.50
2023-03-04T03:01:45.136Z,56.90
2023-03-04T03:02:45.181Z,54.20
2023-03-04T03:03:45.097Z,58.80
2023-03-04T03:04:45.092Z,55.50
2023-03-04T03:05:45.050Z,63.10
2023-03-04T03:06:45.058Z,60.20
2023-03-04T03:07:45.030Z,61.00
2023-03-04T03:08:45.056Z,65.70
2023-03-04T03:09:45.035Z,58.40
2023-03-04T03:10:45.010Z,60.90
2023-03-04T03:11:44.978Z,58.60
2023-03-04T03:12:44.978Z,61.90
2023-03-04T03:13:44.960Z,65.40
2023-03-04T03:14:44.959Z,67.20
2023-03-04T03:15:44.947Z,65.40
2023-03-04T03:16:44.947Z,67.80
2023-03-04T03:17:44.902Z,63.90
2023-03-04T03:18:44.899Z,74.00
2023-03-04T03:19:44.920Z,71.10
2023-03-04T03:20:44.872Z,78.10
2023-03-04T03:21:44.884Z,72.70
2023-03-04T03:22:44.854Z,76.00
2023-03-04T03:23:44.840Z,75.00
2023-03-04T03:24:44.866Z,71.00
2023-03-04T03:25:44.785Z,76.20
2023-03-04T03:26:44.837Z,78.20
2023-03-04T03:27:44.756Z,75.90
2023-03-04T03:28:44.775Z,76.20
2023-03-04T03:29:44.738Z,80.10
2023-03-04T03:30:44.763Z,81.10
2023-03-04T03:31:44.747Z,80.30
2023-03-04T03:32:44.717Z,85.50
2023-03-04T03:33:44.696Z,82.50
2023-03-04T03:34:44.719Z,83.70
2023-03-04T03:35:44.718Z,79.80
2023-03-04T03:36:44.693Z,81.60
2023-03-04T03:37:44.638Z,84.00
2023-03-04T03:38:44.645Z,85.20
2023-03-04T03:39:44.591Z,81.30
2023-03-04T03:40:44.642Z,82.60
2023-03-04T03:41:44.583Z,91.30
2023-03-04T03:42:44.587Z,93.50
2023-03-04T03:43:44.543Z,87.70
2023-03-04T03:44:44.579Z,90.10
2023-03-04T03:45:44.665Z,88.90
2023-03-04T03:46:44.568Z,89.60
2023-03-04T03:47:44.513Z,93.90
2023-03-04T03:48:44.533Z,93.60
2023-03-04T03:49:44.507Z,85.00
2023-03-04T03:50:44.470Z,88.40
2023-03-04T03:51:44.443Z,81.80
2023-03-04T03:52:44.460Z,86.00
2023-03-04T03:53:44.415Z,84.70
2023-03-04T03:54:44.446Z,86.90
2023-03-04T03:55:44.396Z,89.10
2023-03-04T03:56:44.407Z,90.20
2023-03-04T03:57:44.400Z,87.50
2023-03-04T03:58:44.378Z,88.30
2023-03-04T03:59:44.384Z,86.50
2023-03-04T04:00:44.336Z,86.60
2023-03-04T04:01:44.371Z,85.90
2023-03-04T04:02:44.433Z,85.00
2023-03-04T04:03:44.342Z,85.30
2023-03-04T04:04:44.282Z,77.50
2023-03-04T04:05:44.294Z,83.00
2023-03-04T04:06:44.308Z,80.50
2023-03-04T04:07:44.243Z,78.50
2023-03-04T04:08:44.248Z,77.60
2023-03-04T04:09:44.275Z,80.70
2023-03-04T04:10:44.220Z,78.30
2023-03-04T04:11:44.225Z,83.70
2023-03-04T04:12:44.191Z,78.40
2023-03-04T04:13:44.206Z,82.40
2023-03-04T04:14:44.154Z,81.20
2023-03-04T04:15:44.182Z,78.10
2023-03-04T04:16:44.208Z,81.10
2023-03-04T04:17:44.121Z,78.40
2023-03-04T04:18:44.090Z,79.20
2023-03-04T04:19:44.104Z,77.80
2023-03-04T04:20:44.098Z,77.50
2023-03-04T04:21:44.102Z,78.00
2023-03-04T04:22:44.064Z,80.10
2023-03-04T04:23:44.063Z,81.00
2023-03-04T04:24:44.030Z,76.10
2023-03-04T04:25:44.037Z,74.80
2023-03-04T04:26:44.026Z,88.50
2023-03-04T04:27:44.005Z,78.40
2023-03-04T04:28:44.038Z,75.10
2023-03-04T04:29:43.971Z,76.30
2023-03-04T04:30:43.944Z,75.70
2023-03-04T04:31:43.944Z,80.00
2023-03-04T04:32:43.929Z,80.10
2023-03-04T04:33:43.918Z,81.10
2023-03-04T04:34:43.882Z,77.30
2023-03-04T04:35:43.983Z,76.60
2023-03-04T04:36:43.864Z,77.60
2023-03-04T04:37:43.900Z,91.40
2023-03-04T04:38:43.835Z,83.00
2023-03-04T04:39:43.852Z,83.70
2023-03-04T04:40:43.837Z,78.90
2023-03-04T04:41:43.814Z,75.30
2023-03-04T04:42:43.809Z,80.40
2023-03-04T04:43:43.774Z,78.00
2023-03-04T04:44:43.811Z,80.30
2023-03-04T04:45:43.757Z,76.00
2023-03-04T04:46:43.766Z,74.90
2023-03-04T04:47:43.717Z,78.20
2023-03-04T04:48:43.743Z,75.30
2023-03-04T04:49:43.695Z,86.70
2023-03-04T04:50:43.710Z,89.80
2023-03-04T04:51:43.683Z,84.30
2023-03-04T04:52:43.678Z,91.20
2023-03-04T04:53:43.639Z,81.10
2023-03-04T04:54:43.652Z,85.00
2023-03-04T04:55:43.633Z,75.90
2023-03-04T04:56:43.618Z,78.10
2023-03-04T04:57:43.595Z,83.60
2023-03-04T04:58:43.604Z,78.40
2023-03-04T04:59:43.551Z,73.90
2023-03-04T05:00:43.615Z,71.30
2023-03-04T05:01:43.608Z,66.60
2023-03-04T05:02:43.549Z,67.70
2023-03-04T05:03:43.553Z,69.30
2023-03-04T05:04:43.529Z,67.30
2023-03-04T05:05:43.524Z,64.10
2023-03-04T05:06:43.540Z,63.50
2023-03-04T05:07:43.489Z,59.60
2023-03-04T05:08:43.496Z,63.30
2023-03-04T05:09:43.441Z,69.50
2023-03-04T05:10:43.441Z,61.60
2023-03-04T05:11:43.430Z,69.20
2023-03-04T05:12:43.425Z,66.70
2023-03-04T05:13:43.380Z,69.30
2023-03-04T05:14:43.396Z,68.20
2023-03-04T05:15:43.421Z,71.00
2023-03-04T05:16:43.399Z,70.20
2023-03-04T05:17:43.333Z,74.90
2023-03-04T05:18:43.422Z,72.30
2023-03-04T05:19:43.304Z,70.60
2023-03-04T05:20:43.351Z,73.80
2023-03-04T05:21:43.282Z,73.80
2023-03-04T05:22:43.303Z,67.70
2023-03-04T05:23:43.274Z,65.30
2023-03-04T05:24:43.256Z,68.30
2023-03-04T05:25:43.214Z,70.00
2023-03-04T05:26:43.275Z,72.20
2023-03-04T05:27:43.215Z,75.00
2023-03-04T05:28:43.213Z,72.70
2023-03-04T05:29:43.196Z,75.40
2023-03-04T05:30:43.241Z,77.60
2023-03-04T05:31:43.173Z,85.20
2023-03-04T05:32:43.180Z,78.00
2023-03-04T05:33:43.124Z,79.50
2023-03-04T05:34:43.131Z,77.50
2023-03-04T05:35:43.129Z,80.10
2023-03-04T05:36:43.127Z,78.00
2023-03-04T05:37:43.082Z,83.30
2023-03-04T05:38:43.087Z,75.60
2023-03-04T05:39:43.068Z,74.50
2023-03-04T05:40:43.070Z,78.10
2023-03-04T05:41:43.007Z,77.00
2023-03-04T05:42:43.048Z,76.40
2023-03-04T05:43:43.068Z,80.10
2023-03-04T05:44:43.011Z,72.80
2023-03-04T05:45:43.015Z,70.40
2023-03-04T05:46:43.062Z,70.50
2023-03-04T05:47:42.940Z,71.80
2023-03-04T05:48:42.979Z,69.80
2023-03-04T05:49:42.914Z,74.30
2023-03-04T05:50:42.954Z,72.40
2023-03-04T05:51:42.884Z,74.50
2023-03-04T05:52:42.916Z,67.60
2023-03-04T05:53:42.901Z,67.70
2023-03-04T05:54:42.894Z,68.90
2023-03-04T05:55:42.861Z,67.30
2023-03-04T05:56:42.858Z,70.20
2023-03-04T05:57:42.888Z,73.80
2023-03-04T05:58:42.851Z,69.50
2023-03-04T05:59:42.790Z,73.00
2023-03-04T06:00:42.815Z,77.30
2023-03-04T06:01:42.765Z,77.10
2023-03-04T06:02:42.822Z,74.30
2023-03-04T06:03:42.794Z,74.80
2023-03-04T06:04:42.747Z,68.60
2023-03-04T06:05:42.735Z,72.00
2023-03-04T06:06:42.731Z,71.00
2023-03-04T06:07:42.700Z,69.40
2023-03-04T06:08:42.709Z,70.20
2023-03-04T06:09:42.680Z,67.60
2023-03-04T06:10:42.665Z,65.50
2023-03-04T06:11:42.636Z,65.00
2023-03-04T06:12:42.657Z,65.60
2023-03-04T06:13:42.639Z,66.20
2023-03-04T06:14:42.621Z,62.60
2023-03-04T06:15:42.585Z,65.10
2023-03-04T06:16:42.595Z,65.10
2023-03-04T06:17:42.568Z,67.20
2023-03-04T06:18:42.594Z,65.10
2023-03-04T06:19:42.531Z,67.90
2023-03-04T06:20:42.563Z,63.80
2023-03-04T06:21:42.511Z,66.30
2023-03-04T06:22:42.514Z,67.30
2023-03-04T06:23:42.496Z,63.90
2023-03-04T06:24:42.495Z,64.50
2023-03-04T06:25:42.480Z,67.00
2023-03-04T06:26:42.457Z,69.90
2023-03-04T06:27:42.428Z,71.50
2023-03-04T06:28:42.445Z,63.70
2023-03-04T06:29:42.437Z,65.00
2023-03-04T06:30:42.439Z,68.60
2023-03-04T06:31:42.421Z,65.10
2023-03-04T06:32:42.384Z,65.70
2023-03-04T06:33:42.446Z,64.60
2023-03-04T06:34:42.363Z,66.70
2023-03-04T06:35:42.418Z,69.50
2023-03-04T06:36:42.328Z,70.70
2023-03-04T06:37:42.291Z,69.60
2023-03-04T06:38:42.310Z,65.60
2023-03-04T06:39:42.273Z,70.30
2023-03-04T06:40:42.321Z,70.70
2023-03-04T06:41:42.244Z,66.10
2023-03-04T06:42:42.274Z,68.20
2023-03-04T06:43:42.219Z,75.40
2023-03-04T06:44:42.251Z,75.90
2023-03-04T06:45:42.210Z,76.60
2023-03-04T06:46:42.219Z,68.80
2023-03-04T06:47:42.158Z,79.10
2023-03-04T06:48:42.174Z,71.80
2023-03-04T06:49:42.193Z,70.30
2023-03-04T06:50:42.172Z,72.90
2023-03-04T06:51:42.113Z,71.50
2023-03-04T06:52:42.164Z,72.50
2023-03-04T06:53:42.134Z,70.30
2023-03-04T06:54:42.120Z,78.00
2023-03-04T06:55:42.067Z,77.80
2023-03-04T06:56:42.082Z,75.60
2023-03-04T06:57:42.064Z,91.60
2023-03-04T06:58:42.068Z,93.50
2023-03-04T06:59:42.026Z,111.30
2023-03-04T07:00:42.046Z,94.00
2023-03-04T07:01:41.990Z,85.70
2023-03-04T07:02:42.010Z,93.10
2023-03-04T07:03:41.995Z,81.50
2023-03-04T07:04:41.998Z,92.60
2023-03-04T07:05:41.945Z,85.90
2023-03-04T07:06:41.956Z,86.20
2023-03-04T07:07:41.919Z,80.00
2023-03-04T07:08:41.930Z,78.30
2023-03-04T07:09:41.910Z,77.90
2023-03-04T07:10:41.895Z,76.40
2023-03-04T07:11:41.868Z,80.20
2023-03-04T07:12:41.858Z,72.80
2023-03-04T07:13:41.841Z,78.90
2023-03-04T07:14:41.874Z,77.00
2023-03-04T07:15:41.821Z,84.10
2023-03-04T07:16:41.863Z,85.60
2023-03-04T07:17:41.769Z,80.10
2023-03-04T07:18:41.808Z,88.00
2023-03-04T07:19:41.774Z,83.00
2023-03-04T07:20:41.777Z,84.10
2023-03-04T07:21:41.744Z,84.50
2023-03-04T07:22:41.760Z,81.70
2023-03-04T07:23:41.700Z,81.50
2023-03-04T07:24:41.711Z,85.40
2023-03-04T07:25:41.693Z,79.30
2023-03-04T07:26:41.676Z,85.50
2023-03-04T07:27:41.650Z,89.40
2023-03-04T07:28:41.658Z,98.00
2023-03-04T07:29:41.616Z,90.40
2023-03-04T07:30:41.650Z,101.20
2023-03-04T07:31:41.715Z,106.50
2023-03-04T07:32:41.673Z,100.50
2023-03-04T07:33:41.590Z,97.10
2023-03-04T07:34:41.584Z,104.00
2023-03-04T07:35:41.750Z,113.20
2023-03-04T07:36:41.573Z,106.70
2023-03-04T07:37:41.522Z,104.90
2023-03-04T07:38:41.515Z,107.30
2023-03-04T07:39:41.484Z,106.70
2023-03-04T07:40:41.528Z,109.30
2023-03-04T07:41:41.459Z,109.20
2023-03-04T07:42:41.476Z,110.30
2023-03-04T07:43:41.455Z,109.10
2023-03-04T07:44:41.460Z,105.70
2023-03-04T07:45:41.451Z,99.70
2023-03-04T07:46:41.447Z,107.40
2023-03-04T07:47:41.408Z,107.40
2023-03-04T07:48:41.422Z,102.80
2023-03-04T07:49:41.392Z,100.20
2023-03-04T07:50:41.369Z,106.70
2023-03-04T07:51:41.374Z,96.80
2023-03-04T07:52:41.380Z,109.10
2023-03-04T07:53:41.322Z,101.80
2023-03-04T07:54:41.345Z,97.60
2023-03-04T07:55:41.306Z,102.00
2023-03-04T07:56:41.314Z,98.40
2023-03-04T07:57:41.283Z,99.60
2023-03-04T07:58:41.277Z,97.80
2023-03-04T07:59:41.225Z,95.60
2023-03-04T08:00:41.240Z,95.50
2023-03-04T08:01:41.198Z,100.10
2023-03-04T08:02:41.283Z,95.10
2023-03-04T08:03:41.166Z,96.30
2023-03-04T08:04:41.222Z,100.50
2023-03-04T08:05:41.141Z,109.70
2023-03-04T08:06:41.196Z,101.80
2023-03-04T08:07:41.133Z,102.90
2023-03-04T08:08:41.135Z,111.80
2023-03-04T08:09:41.141Z,122.00
2023-03-04T08:10:41.885Z,129.70
2023-03-04T08:11:41.104Z,111.30
2023-03-04T08:12:41.114Z,107.40
2023-03-04T08:13:41.058Z,97.10
2023-03-04T08:14:41.080Z,102.60
2023-03-04T08:15:41.053Z,99.00
2023-03-04T08:16:41.034Z,103.90
2023-03-04T08:17:40.996Z,98.20
2023-03-04T08:18:40.999Z,97.20
2023-03-04T08:19:40.984Z,97.50
2023-03-04T08:20:40.974Z,91.50
2023-03-04T08:21:40.953Z,96.80
2023-03-04T08:22:40.959Z,93.80
2023-03-04T08:23:41.020Z,91.70
2023-03-04T08:24:40.936Z,89.90
2023-03-04T08:25:40.878Z,83.20
2023-03-04T08:26:41.178Z,85.70
2023-03-04T08:27:40.860Z,88.40
2023-03-04T08:28:40.866Z,87.50
2023-03-04T08:29:40.852Z,81.50
2023-03-04T08:30:40.848Z,83.90
2023-03-04T08:31:41.028Z,84.50
2023-03-04T08:32:40.964Z,92.60
2023-03-04T08:33:40.782Z,84.50
2023-03-04T08:34:40.826Z,84.80
2023-03-04T08:35:40.818Z,81.30
2023-03-04T08:36:40.762Z,86.60
2023-03-04T08:37:40.724Z,86.70
2023-03-04T08:38:40.737Z,81.80
2023-03-04T08:39:40.731Z,87.10
2023-03-04T08:40:40.699Z,87.90
2023-03-04T08:41:40.693Z,85.80
2023-03-04T08:42:40.704Z,87.10
2023-03-04T08:43:40.653Z,83.60
2023-03-04T08:44:40.664Z,87.70
2023-03-04T08:45:40.651Z,79.80
2023-03-04T08:46:40.645Z,83.00
2023-03-04T08:47:40.597Z,75.10
2023-03-04T08:48:40.632Z,73.60
2023-03-04T08:49:40.593Z,76.30
2023-03-04T08:50:40.603Z,83.00
2023-03-04T08:51:40.535Z,75.60
2023-03-04T08:52:40.668Z,74.40
2023-03-04T08:53:40.521Z,71.60
2023-03-04T08:54:40.544Z,74.00
2023-03-04T08:55:40.490Z,71.60
2023-03-04T08:56:40.499Z,70.90
2023-03-04T08:57:40.472Z,71.30
2023-03-04T08:58:40.464Z,74.10
2023-03-04T08:59:40.487Z,69.60
2023-03-04T09:00:40.439Z,67.50
2023-03-04T09:01:41.364Z,68.00
2023-03-04T09:02:40.405Z,70.20
2023-03-04T09:03:40.504Z,71.60
2023-03-04T09:04:40.401Z,70.40
2023-03-04T09:05:40.380Z,69.00
2023-03-04T09:06:40.345Z,68.80
2023-03-04T09:07:40.359Z,66.60
2023-03-04T09:08:40.336Z,68.10
2023-03-04T09:09:40.356Z,68.90
2023-03-04T09:10:40.292Z,67.90
2023-03-04T09:11:40.348Z,66.10
2023-03-04T09:12:40.314Z,65.60
2023-03-04T09:13:40.323Z,68.80
2023-03-04T09:14:40.255Z,72.80
2023-03-04T09:15:40.323Z,64.70
2023-03-04T09:16:40.244Z,70.00
2023-03-04T09:17:40.256Z,63.00
2023-03-04T09:18:40.252Z,68.20
2023-03-04T09:19:40.218Z,63.50
2023-03-04T09:20:40.184Z,65.60
2023-03-04T09:21:40.198Z,63.60
2023-03-04T09:22:40.135Z,62.10
2023-03-04T09:23:40.188Z,61.80
2023-03-04T09:24:40.139Z,64.60
2023-03-04T09:25:40.132Z,62.90
2023-03-04T09:26:40.096Z,63.90
2023-03-04T09:27:40.113Z,64.30
2023-03-04T09:28:40.080Z,64.30
2023-03-04T09:29:40.091Z,61.80
2023-03-04T09:30:40.036Z,64.60
2023-03-04T09:31:40.116Z,61.20
2023-03-04T09:32:40.032Z,63.80
2023-03-04T09:33:40.046Z,61.50
2023-03-04T09:34:40.009Z,65.90
2023-03-04T09:35:40.042Z,68.00
2023-03-04T09:36:39.950Z,63.30
2023-03-04T09:37:41.605Z,62.70
2023-03-04T09:38:39.965Z,67.80
2023-03-04T09:39:40.831Z,64.60
2023-03-04T09:40:39.915Z,77.90
2023-03-04T09:41:39.924Z,104.50
2023-03-04T09:42:39.884Z,66.50
2023-03-04T09:43:39.892Z,60.90
2023-03-04T09:44:39.915Z,65.90
2023-03-04T09:45:39.921Z,73.60
2023-03-04T09:46:39.950Z,63.80
2023-03-04T09:47:39.836Z,71.20
2023-03-04T09:48:39.874Z,71.90
2023-03-04T09:49:39.812Z,72.90
2023-03-04T09:50:39.775Z,75.00
2023-03-04T09:51:39.791Z,70.60
2023-03-04T09:52:39.746Z,76.30
2023-03-04T09:53:39.781Z,69.20
2023-03-04T09:54:39.726Z,69.10
2023-03-04T09:55:39.727Z,69.40
2023-03-04T09:56:39.695Z,67.20
2023-03-04T09:57:39.700Z,70.00
2023-03-04T09:58:39.697Z,72.50
2023-03-04T09:59:39.684Z,69.00
2023-03-04T10:00:39.692Z,65.50
2023-03-04T10:01:39.654Z,66.70
2023-03-04T10:02:39.618Z,69.70
2023-03-04T10:03:39.669Z,69.10
2023-03-04T10:04:39.644Z,74.50
2023-03-04T10:05:39.596Z,83.20
2023-03-04T10:06:39.587Z,76.30
2023-03-04T10:07:39.619Z,73.90
2023-03-04T10:08:39.552Z,71.60
2023-03-04T10:09:39.561Z,73.70
2023-03-04T10:10:39.615Z,73.50
2023-03-04T10:11:39.568Z,75.30
2023-03-04T10:12:39.493Z,72.80
2023-03-04T10:13:39.501Z,70.00
2023-03-04T10:14:39.468Z,77.00
2023-03-04T10:15:39.482Z,74.50
2023-03-04T10:16:39.553Z,74.40
2023-03-04T10:17:39.766Z,72.90
2023-03-04T10:18:39.415Z,73.10
2023-03-04T10:19:39.419Z,75.40
2023-03-04T10:20:39.417Z,73.90
2023-03-04T10:21:39.408Z,69.20
2023-03-04T10:22:39.348Z,74.20
2023-03-04T10:23:39.364Z,71.70
2023-03-04T10:24:39.365Z,80.10
2023-03-04T10:25:39.341Z,78.90
2023-03-04T10:26:39.314Z,81.20
2023-03-04T10:27:39.322Z,76.30
2023-03-04T10:28:39.270Z,77.50
2023-03-04T10:29:39.280Z,77.20
2023-03-04T10:30:39.261Z,79.50
2023-03-04T10:31:39.285Z,80.70
2023-03-04T10:32:39.267Z,74.10
2023-03-04T10:33:39.218Z,74.70
2023-03-04T10:34:39.217Z,73.50
2023-03-04T10:35:39.253Z,69.70
2023-03-04T10:36:39.203Z,71.00
2023-03-04T10:37:39.184Z,69.50
2023-03-04T10:38:39.159Z,68.60
2023-03-04T10:39:39.125Z,70.50
2023-03-04T10:40:39.128Z,70.20
2023-03-04T10:41:39.276Z,69.30
2023-03-04T10:42:39.178Z,73.80
2023-03-04T10:43:39.082Z,71.40
2023-03-04T10:44:39.064Z,75.30
2023-03-04T10:45:39.105Z,65.00
2023-03-04T10:46:39.024Z,67.20
2023-03-04T10:47:39.056Z,63.70
2023-03-04T10:48:39.025Z,73.80
2023-03-04T10:49:39.035Z,71.60
2023-03-04T10:50:38.964Z,70.20
2023-03-04T10:51:38.993Z,72.00
2023-03-04T10:52:38.970Z,72.10
2023-03-04T10:53:38.991Z,69.00
2023-03-04T10:54:38.937Z,69.00
2023-03-04T10:55:38.980Z,66.00
2023-03-04T10:56:38.905Z,63.00
2023-03-04T10:57:38.993Z,69.00
2023-03-04T10:58:38.869Z,67.40
2023-03-04T10:59:39.265Z,66.50
2023-03-04T11:00:38.830Z,67.10
2023-03-04T11:01:38.834Z,65.50
2023-03-04T11:02:38.807Z,70.40
2023-03-04T11:03:38.944Z,63.90
2023-03-04T11:04:38.804Z,66.10
2023-03-04T11:05:38.812Z,63.80
2023-03-04T11:06:38.793Z,68.60
2023-03-04T11:07:54.070Z,68.90
2023-03-04T11:08:38.727Z,63.10
2023-03-04T11:09:38.731Z,64.40
2023-03-04T11:10:38.729Z,62.60
2023-03-04T11:11:38.709Z,72.00
2023-03-04T11:12:38.665Z,63.30
2023-03-04T11:13:38.729Z,66.20
2023-03-04T11:14:38.676Z,66.30
2023-03-04T11:15:38.686Z,68.40
2023-03-04T11:16:38.689Z,66.60
2023-03-04T11:17:38.647Z,68.00
2023-03-04T11:18:38.598Z,65.80
2023-03-04T11:19:38.600Z,68.50
2023-03-04T11:20:38.576Z,64.90
2023-03-04T11:21:40.288Z,66.20
2023-03-04T11:22:38.544Z,68.20
2023-03-04T11:23:38.544Z,67.30
2023-03-04T11:24:38.548Z,64.40
2023-03-04T11:25:38.524Z,69.70
2023-03-04T11:26:38.494Z,59.80
2023-03-04T11:27:38.490Z,60.40
2023-03-04T11:28:38.499Z,64.70
2023-03-04T11:29:38.475Z,65.00
2023-03-04T11:30:38.434Z,67.10
2023-03-04T11:31:38.467Z,67.70
2023-03-04T11:32:38.462Z,62.80
2023-03-04T11:33:38.439Z,66.70
2023-03-04T11:34:38.392Z,66.20
2023-03-04T11:35:38.452Z,65.80
2023-03-04T11:36:38.351Z,68.70
2023-03-04T11:37:38.371Z,63.00
2023-03-04T11:38:38.331Z,61.40
2023-03-04T11:39:38.367Z,59.70
2023-03-04T11:40:38.338Z,62.20
2023-03-04T11:41:38.318Z,61.40
2023-03-04T11:42:38.307Z,65.20
2023-03-04T11:43:38.295Z,60.80
2023-03-04T11:44:38.277Z,63.80
2023-03-04T11:45:38.299Z,67.10
2023-03-04T11:46:38.240Z,63.40
2023-03-04T11:47:38.267Z,70.00
2023-03-04T11:48:38.226Z,60.70
2023-03-04T11:49:38.255Z,60.50
2023-03-04T11:50:38.191Z,54.50
2023-03-04T11:51:38.202Z,61.50
2023-03-04T11:52:38.180Z,58.90
2023-03-04T11:53:38.196Z,59.70
2023-03-04T11:54:38.240Z,62.70
2023-03-04T11:55:38.156Z,65.00
2023-03-04T11:56:38.110Z,58.80
2023-03-04T11:57:38.130Z,60.10
2023-03-04T11:58:38.081Z,59.80
2023-03-04T11:59:38.149Z,58.70
2023-03-04T12:00:38.068Z,63.40
2023-03-04T12:01:38.067Z,62.40
2023-03-04T12:02:38.033Z,60.60
2023-03-04T12:03:38.074Z,59.20
2023-03-04T12:04:38.243Z,60.20
2023-03-04T12:05:38.028Z,58.70
2023-03-04T12:06:38.025Z,59.50
2023-03-04T12:07:37.987Z,63.80
2023-03-04T12:08:38.176Z,58.30
2023-03-04T12:09:37.946Z,59.80
2023-03-04T12:10:37.957Z,58.40
2023-03-04T12:11:37.959Z,58.70
2023-03-04T12:12:37.889Z,64.30
2023-03-04T12:13:37.918Z,60.70
2023-03-04T12:14:37.880Z,59.30
2023-03-04T12:15:38.182Z,60.60
2023-03-04T12:16:37.866Z,65.80
2023-03-04T12:17:37.893Z,55.10
2023-03-04T12:18:37.817Z,56.60
2023-03-04T12:19:37.856Z,55.90
2023-03-04T12:20:37.796Z,65.50
2023-03-04T12:21:37.878Z,59.40
2023-03-04T12:22:37.806Z,56.70
2023-03-04T12:23:37.809Z,61.40
2023-03-04T12:24:37.812Z,72.60
2023-03-04T12:25:37.806Z,66.10
2023-03-04T12:26:37.716Z,59.70
2023-03-04T12:27:37.791Z,59.30
2023-03-04T12:28:37.684Z,52.60
2023-03-04T12:29:37.698Z,50.40
2023-03-04T12:30:37.656Z,51.70
2023-03-04T12:31:37.685Z,57.10
2023-03-04T12:32:37.688Z,57.30
2023-03-04T12:33:37.662Z,51.50
2023-03-04T12:34:37.603Z,58.50
2023-03-04T12:35:37.679Z,52.10
2023-03-04T12:36:37.584Z,59.10
2023-03-04T12:37:37.604Z,58.10
2023-03-04T12:38:37.586Z,58.60
2023-03-04T12:39:37.563Z,58.30
2023-03-04T12:40:37.517Z,49.60
2023-03-04T12:41:37.541Z,51.40
2023-03-04T12:42:37.514Z,56.30
2023-03-04T12:43:37.548Z,49.30
2023-03-04T12:44:37.502Z,52.80
2023-03-04T12:45:37.473Z,48.60
2023-03-04T12:46:37.481Z,54.90
2023-03-04T12:47:37.460Z,52.60
2023-03-04T12:48:37.434Z,57.40
2023-03-04T12:49:37.454Z,51.70
2023-03-04T12:50:37.401Z,54.50
2023-03-04T12:51:37.410Z,50.70